Time;durP1;ratioP1;P1;durP2;ratioP2;P2;SDS_P1;SDS_P2;PMS_P1;PMS_P2;Temp;Humidity;BMP_temperature;BMP_pressure;BME280_temperature;BME280_humidity;BME280_pressure;Samples;Min_cycle;Max_cycle;Signal;HPM_P1;HPM_P2
2022/09/08 00:00:44;;;;;;;92.30;55.83;;;17.30;99.90;;;;;;5039415;28;20041;-47
2022/09/08 00:03:13;;;;;;;108.28;61.15;;;17.30;99.90;;;;;;5049416;28;20470;-47
2022/09/08 00:06:08;;;;;;;90.88;53.88;;;17.20;99.90;;;;;;5042574;28;20036;-47
2022/09/08 00:08:34;;;;;;;77.45;51.50;;;17.20;99.90;;;;;;5009135;28;20037;-48
2022/09/08 00:11:05;;;;;;;87.38;53.70;;;17.30;99.90;;;;;;5037075;28;20021;-48
2022/09/08 00:13:32;;;;;;;94.72;58.20;;;17.30;99.90;;;;;;5051270;28;20017;-50
2022/09/08 00:16:01;;;;;;;96.47;57.97;;;17.30;99.90;;;;;;5042073;28;20057;-47
2022/09/08 00:18:28;;;;;;;92.50;58.40;;;17.30;99.90;;;;;;5035409;28;20024;-47
2022/09/08 00:20:53;;;;;;;99.88;59.67;;;17.30;99.90;;;;;;5046584;28;20028;-49
2022/09/08 00:23:19;;;;;;;95.75;56.35;;;17.30;99.90;;;;;;5042688;28;20017;-50
2022/09/08 00:25:46;;;;;;;102.18;59.63;;;17.30;99.90;;;;;;5045215;28;20029;-48
2022/09/08 00:28:12;;;;;;;66.95;45.70;;;17.40;99.90;;;;;;5040930;28;20018;-48
2022/09/08 00:30:37;;;;;;;104.03;58.55;;;17.40;99.90;;;;;;5049061;28;20559;-48
2022/09/08 00:33:03;;;;;;;90.93;57.65;;;17.40;99.90;;;;;;5039179;28;20022;-47
2022/09/08 00:35:29;;;;;;;85.53;54.38;;;17.40;99.90;;;;;;5050831;28;20033;-50
2022/09/08 00:37:54;;;;;;;102.55;59.58;;;17.50;99.90;;;;;;5042501;28;20029;-49
2022/09/08 00:40:22;;;;;;;89.63;54.72;;;17.50;99.90;;;;;;5042521;28;20036;-50
2022/09/08 00:42:57;;;;;;;92.25;57.10;;;17.40;99.90;;;;;;5042452;28;20037;-47
2022/09/08 00:45:24;;;;;;;96.55;58.55;;;17.40;99.90;;;;;;5042391;28;20025;-46
2022/09/08 00:48:03;;;;;;;86.30;55.70;;;17.40;99.90;;;;;;5045405;28;20144;-46
2022/09/08 00:50:29;;;;;;;109.97;61.78;;;17.40;99.90;;;;;;5035906;28;20028;-47
2022/09/08 00:53:00;;;;;;;101.18;57.58;;;17.30;99.90;;;;;;5046433;28;20402;-49
2022/09/08 00:55:28;;;;;;;100.88;59.08;;;17.30;99.90;;;;;;5033564;28;20352;-46
2022/09/08 00:57:53;;;;;;;81.25;52.00;;;17.30;99.90;;;;;;5050851;28;20095;-50
2022/09/08 01:00:20;;;;;;;78.55;48.70;;;17.20;99.90;;;;;;5041859;28;20033;-46
2022/09/08 01:02:46;;;;;;;88.25;55.33;;;17.20;99.90;;;;;;5041772;28;20033;-47
2022/09/08 01:05:15;;;;;;;76.95;51.55;;;17.10;99.90;;;;;;5048964;28;20467;-46
2022/09/08 01:14:01;;;;;;;73.55;49.95;;;17.00;99.90;;;;;;5035208;28;20064;-49
2022/09/08 01:16:27;;;;;;;86.35;54.45;;;16.90;99.90;;;;;;5032560;28;20645;-49
2022/09/08 01:18:56;;;;;;;75.97;50.42;;;16.90;99.90;;;;;;5041778;28;20124;-50
2022/09/08 01:21:46;;;;;;;69.32;49.15;;;16.90;99.90;;;;;;5049055;28;20430;-48
2022/09/08 01:24:33;;;;;;;75.05;51.10;;;16.80;99.90;;;;;;5041456;28;20052;-48
2022/09/08 01:27:21;;;;;;;125.35;70.75;;;16.70;99.90;;;;;;5042142;28;20017;-47
2022/09/08 01:29:47;;;;;;;91.28;56.83;;;16.80;99.90;;;;;;5038520;28;20132;-50
2022/09/08 01:32:14;;;;;;;87.80;56.35;;;16.70;99.90;;;;;;5030186;28;20383;-47
2022/09/08 01:34:41;;;;;;;102.00;63.47;;;16.80;99.90;;;;;;5029346;28;20017;-48
2022/09/08 01:37:07;;;;;;;92.25;59.17;;;16.70;99.90;;;;;;5039277;28;20029;-49
2022/09/08 01:39:33;;;;;;;162.02;82.82;;;16.70;99.90;;;;;;5050052;28;20029;-50
2022/09/08 01:41:59;;;;;;;133.73;74.93;;;16.70;99.90;;;;;;5046065;28;20033;-47
2022/09/08 01:44:25;;;;;;;98.93;60.83;;;16.70;99.90;;;;;;5029509;28;20040;-50
2022/09/08 01:46:51;;;;;;;111.07;65.82;;;16.70;99.90;;;;;;5029874;28;20491;-48
2022/09/08 01:49:16;;;;;;;108.90;62.40;;;16.70;99.90;;;;;;5036936;28;20032;-48
2022/09/08 01:51:42;;;;;;;110.72;68.18;;;16.70;99.90;;;;;;5043905;28;20564;-47
2022/09/08 01:54:08;;;;;;;110.22;65.40;;;16.70;99.90;;;;;;5049197;28;20032;-47
2022/09/08 01:56:35;;;;;;;136.82;75.68;;;16.60;99.90;;;;;;5036512;28;20017;-47
2022/09/08 01:59:00;;;;;;;100.97;62.35;;;16.60;99.90;;;;;;5046222;28;20053;-50
2022/09/08 02:01:26;;;;;;;79.22;53.63;;;16.50;99.90;;;;;;5042621;28;20604;-47
2022/09/08 02:03:51;;;;;;;78.05;51.17;;;16.50;99.90;;;;;;5040902;28;20044;-50
2022/09/08 02:06:17;;;;;;;84.82;56.60;;;16.50;99.90;;;;;;5048952;28;20029;-48
2022/09/08 02:08:43;;;;;;;92.35;55.83;;;16.50;99.90;;;;;;5040070;28;20061;-46
2022/09/08 02:11:09;;;;;;;130.20;71.10;;;16.50;99.90;;;;;;5047187;28;20081;-49
2022/09/08 02:13:35;;;;;;;120.32;68.53;;;16.50;99.90;;;;;;5041596;28;20485;-47
2022/09/08 02:16:06;;;;;;;82.93;55.83;;;16.50;99.90;;;;;;5046487;28;20018;-47
2022/09/08 02:18:32;;;;;;;103.65;65.13;;;16.40;99.90;;;;;;5045738;28;20035;-47
2022/09/08 02:21:18;;;;;;;116.38;67.85;;;16.40;99.90;;;;;;5039669;28;20803;-47
2022/09/08 02:23:46;;;;;;;114.93;66.85;;;16.40;99.90;;;;;;5042326;28;20056;-50
2022/09/08 02:26:17;;;;;;;99.90;59.85;;;16.40;99.90;;;;;;5035704;28;20499;-50
2022/09/08 02:28:43;;;;;;;128.88;73.28;;;16.30;99.90;;;;;;5029216;28;20037;-48
2022/09/08 02:31:09;;;;;;;114.03;67.80;;;16.40;99.90;;;;;;5036025;28;20421;-46
2022/09/08 02:33:35;;;;;;;95.90;61.33;;;16.30;99.90;;;;;;5041443;28;20036;-47
2022/09/08 02:36:02;;;;;;;112.85;65.85;;;16.20;99.90;;;;;;5039398;28;20052;-47
2022/09/08 02:38:27;;;;;;;124.85;73.28;;;16.30;99.90;;;;;;5040291;28;20103;-47
2022/09/08 02:40:53;;;;;;;95.72;61.40;;;16.20;99.90;;;;;;5043584;28;20026;-50
2022/09/08 02:43:20;;;;;;;106.47;64.70;;;16.20;99.90;;;;;;5037506;28;20029;-47
2022/09/08 02:45:46;;;;;;;111.63;66.35;;;16.20;99.90;;;;;;5048515;28;20018;-50
2022/09/08 02:48:12;;;;;;;118.22;69.63;;;16.30;99.90;;;;;;5039071;28;20409;-46
2022/09/08 02:50:38;;;;;;;116.55;66.28;;;16.20;99.90;;;;;;5042148;28;20382;-47
2022/09/08 02:53:04;;;;;;;88.78;59.38;;;16.20;99.90;;;;;;5041242;28;20132;-48
2022/09/08 02:55:29;;;;;;;108.93;66.90;;;16.20;99.90;;;;;;5040716;28;20037;-47
2022/09/08 02:57:55;;;;;;;97.43;61.25;;;16.20;99.90;;;;;;5046978;28;20368;-47
2022/09/08 03:00:21;;;;;;;108.45;64.82;;;16.10;99.90;;;;;;5039132;28;20029;-50
2022/09/08 03:02:47;;;;;;;107.70;65.85;;;16.10;99.90;;;;;;5047963;28;20052;-47
2022/09/08 03:05:13;;;;;;;107.38;63.90;;;16.10;99.90;;;;;;5041162;28;20075;-47
2022/09/08 03:07:39;;;;;;;114.50;63.63;;;16.10;99.90;;;;;;5040028;28;20031;-46
2022/09/08 03:10:06;;;;;;;105.97;61.22;;;16.10;99.90;;;;;;5047219;28;20222;-46
2022/09/08 03:12:33;;;;;;;85.95;55.20;;;16.00;99.90;;;;;;5039481;28;20083;-49
2022/09/08 03:14:59;;;;;;;79.43;51.90;;;16.00;99.90;;;;;;5045846;28;20029;-46
2022/09/08 03:17:24;;;;;;;82.78;54.15;;;16.00;99.90;;;;;;5028882;28;20026;-47
2022/09/08 03:19:50;;;;;;;93.65;59.47;;;16.00;99.90;;;;;;5031532;28;20414;-45
2022/09/08 03:22:17;;;;;;;113.72;64.50;;;16.00;99.90;;;;;;5039358;28;20355;-45
2022/09/08 03:24:43;;;;;;;98.10;61.03;;;16.00;99.90;;;;;;5046190;28;20397;-46
2022/09/08 03:27:08;;;;;;;105.60;62.10;;;16.00;99.90;;;;;;5049200;28;20029;-48
2022/09/08 03:29:34;;;;;;;94.20;58.88;;;16.00;99.90;;;;;;5045551;28;20471;-49
2022/09/08 03:32:00;;;;;;;88.55;57.13;;;16.00;99.90;;;;;;5050863;28;20021;-49
2022/09/08 03:34:26;;;;;;;97.75;61.72;;;16.00;99.90;;;;;;5050457;28;20033;-47
2022/09/08 03:36:52;;;;;;;121.68;67.18;;;16.00;99.90;;;;;;5044538;28;20025;-47
2022/09/08 03:39:18;;;;;;;97.90;61.97;;;15.90;99.90;;;;;;5043976;28;20217;-46
2022/09/08 03:41:44;;;;;;;92.30;58.10;;;15.90;99.90;;;;;;5052342;28;20514;-46
2022/09/08 03:44:09;;;;;;;99.75;57.50;;;16.00;99.90;;;;;;5042134;28;20024;-47
2022/09/08 03:46:35;;;;;;;91.20;56.72;;;15.90;99.90;;;;;;5045292;28;20026;-48
2022/09/08 03:49:01;;;;;;;89.93;56.13;;;15.90;99.90;;;;;;5051829;28;20025;-46
2022/09/08 03:51:26;;;;;;;93.75;56.63;;;15.90;99.90;;;;;;5041091;28;20026;-49
2022/09/08 03:54:46;;;;;;;108.05;67.03;;;15.90;99.90;;;;;;5043140;28;20025;-47
2022/09/08 03:56:43;;;;;;;95.50;58.13;;;15.90;99.90;;;;;;5050026;28;20033;-50
2022/09/08 03:59:09;;;;;;;89.57;57.15;;;15.90;99.90;;;;;;5043491;28;20037;-48
2022/09/08 04:01:35;;;;;;;97.88;64.40;;;15.80;99.90;;;;;;5050606;28;20128;-47
2022/09/08 04:04:01;;;;;;;103.93;64.75;;;15.90;99.90;;;;;;5040238;28;20021;-47
2022/09/08 04:06:28;;;;;;;95.47;57.85;;;15.80;99.90;;;;;;5050679;28;20040;-48
2022/09/08 04:08:53;;;;;;;97.40;60.80;;;15.90;99.90;;;;;;5047201;28;20100;-48
2022/09/08 04:11:19;;;;;;;85.78;58.67;;;15.80;99.90;;;;;;5043374;28;20120;-47
2022/09/08 04:13:46;;;;;;;87.70;57.55;;;15.90;99.90;;;;;;5049748;28;20479;-47
2022/09/08 04:16:11;;;;;;;78.43;54.17;;;15.90;99.90;;;;;;5040207;28;20066;-48
2022/09/08 04:18:37;;;;;;;77.07;56.28;;;15.90;99.90;;;;;;5027928;28;20116;-47
2022/09/08 04:21:04;;;;;;;73.22;52.67;;;15.80;99.90;;;;;;5020668;28;20033;-47
2022/09/08 04:23:30;;;;;;;62.58;46.20;;;15.80;99.90;;;;;;5025361;28;20570;-47
2022/09/08 04:26:04;;;;;;;66.47;49.63;;;15.80;99.90;;;;;;5045823;28;20017;-47
2022/09/08 04:28:30;;;;;;;59.55;47.72;;;15.80;99.90;;;;;;5039075;28;20482;-48
2022/09/08 04:30:55;;;;;;;56.90;44.72;;;15.80;99.90;;;;;;5046821;28;20036;-46
2022/09/08 04:33:21;;;;;;;49.03;40.65;;;15.80;99.90;;;;;;5042837;28;20086;-47
2022/09/08 04:35:47;;;;;;;52.50;41.67;;;15.80;99.90;;;;;;5042990;28;20017;-48
2022/09/08 04:38:12;;;;;;;51.83;42.10;;;15.80;99.90;;;;;;5043143;28;20031;-47
2022/09/08 04:40:38;;;;;;;45.47;38.13;;;15.80;99.90;;;;;;5042827;28;20110;-47
2022/09/08 04:43:04;;;;;;;45.85;38.50;;;15.80;99.90;;;;;;5050865;28;20083;-47
2022/09/08 04:45:30;;;;;;;46.83;38.90;;;15.80;99.90;;;;;;5044638;28;20285;-47
2022/09/08 04:47:55;;;;;;;44.58;37.17;;;15.70;99.90;;;;;;5046728;28;20021;-50
2022/09/08 04:50:21;;;;;;;50.53;39.15;;;15.70;99.90;;;;;;5042294;28;20028;-49
2022/09/08 04:52:46;;;;;;;47.05;39.30;;;15.70;99.90;;;;;;5041938;28;20025;-47
2022/09/08 04:55:12;;;;;;;43.03;34.20;;;15.70;99.90;;;;;;5043116;28;20491;-49
2022/09/08 04:57:37;;;;;;;42.53;35.40;;;15.70;99.90;;;;;;5042126;28;20078;-46
2022/09/08 05:00:04;;;;;;;47.47;37.00;;;15.70;99.90;;;;;;5043271;28;20025;-48
2022/09/08 05:02:29;;;;;;;41.13;34.97;;;15.70;99.90;;;;;;5040371;28;20025;-45
2022/09/08 05:04:55;;;;;;;38.55;32.97;;;15.70;99.90;;;;;;5045626;28;20370;-47
2022/09/08 05:07:20;;;;;;;44.30;35.40;;;15.70;99.90;;;;;;5040218;28;20025;-48
2022/09/08 05:09:46;;;;;;;42.10;36.55;;;15.70;99.90;;;;;;5050618;28;20017;-47
2022/09/08 05:12:11;;;;;;;38.33;32.95;;;15.70;99.90;;;;;;5039844;28;20466;-48
2022/09/08 05:14:37;;;;;;;37.65;33.20;;;15.70;99.90;;;;;;5043233;28;20489;-47
2022/09/08 05:17:02;;;;;;;42.13;34.60;;;15.70;99.90;;;;;;5049290;28;20395;-47
2022/09/08 05:19:28;;;;;;;37.75;33.35;;;15.80;99.90;;;;;;5044809;28;20719;-44
2022/09/08 05:21:53;;;;;;;36.85;32.72;;;15.70;99.90;;;;;;5031776;28;20033;-45
2022/09/08 05:24:20;;;;;;;43.38;34.67;;;15.70;99.90;;;;;;5029038;28;20430;-47
2022/09/08 05:26:46;;;;;;;40.30;32.55;;;15.80;99.90;;;;;;5033890;28;20035;-45
2022/09/08 05:29:12;;;;;;;34.28;30.60;;;15.80;99.90;;;;;;5041647;28;20033;-45
2022/09/08 05:31:38;;;;;;;36.88;32.80;;;15.80;99.90;;;;;;5050211;28;20103;-44
2022/09/08 05:34:03;;;;;;;35.80;31.30;;;15.90;99.90;;;;;;5041112;28;20033;-45
2022/09/08 05:36:32;;;;;;;35.17;30.48;;;15.90;99.90;;;;;;5022108;28;20112;-44
2022/09/08 05:38:59;;;;;;;36.20;30.55;;;15.90;99.90;;;;;;5018473;28;20104;-45
2022/09/08 05:41:25;;;;;;;36.92;32.30;;;15.90;99.90;;;;;;5022560;28;20036;-47
2022/09/08 05:43:52;;;;;;;37.95;33.88;;;16.00;99.90;;;;;;5024655;28;20105;-46
2022/09/08 05:46:18;;;;;;;38.63;33.25;;;16.00;99.90;;;;;;5021284;28;20486;-45
2022/09/08 05:48:44;;;;;;;32.25;28.15;;;16.00;99.90;;;;;;5033667;28;20022;-44
2022/09/08 05:51:12;;;;;;;35.35;29.85;;;16.00;99.90;;;;;;5029587;28;20101;-48
2022/09/08 05:53:38;;;;;;;33.55;27.65;;;16.00;99.90;;;;;;5033290;28;20025;-45
2022/09/08 05:56:06;;;;;;;33.63;28.55;;;16.10;99.90;;;;;;5041301;28;20029;-48
2022/09/08 05:58:32;;;;;;;33.75;27.88;;;16.10;99.90;;;;;;5043284;28;20272;-45
2022/09/08 06:01:01;;;;;;;36.22;29.80;;;16.10;99.90;;;;;;5027358;28;20022;-45
2022/09/08 06:03:27;;;;;;;33.58;29.92;;;16.10;99.90;;;;;;5016873;28;20084;-46
2022/09/08 06:05:54;;;;;;;35.40;31.02;;;16.10;99.90;;;;;;5019001;28;20452;-46
2022/09/08 06:08:21;;;;;;;35.97;30.38;;;16.10;99.90;;;;;;5017954;28;20028;-47
2022/09/08 06:10:51;;;;;;;35.85;31.00;;;16.10;99.90;;;;;;5019799;28;20100;-45
2022/09/08 06:13:17;;;;;;;34.58;29.20;;;16.20;99.90;;;;;;5018148;28;20049;-46
2022/09/08 06:15:43;;;;;;;31.38;28.02;;;16.20;99.90;;;;;;5017699;28;20152;-46
2022/09/08 06:18:08;;;;;;;28.25;25.17;;;16.20;99.90;;;;;;5017452;28;20030;-47
2022/09/08 06:20:35;;;;;;;43.38;30.83;;;16.20;99.90;;;;;;5018459;28;20474;-46
2022/09/08 06:23:01;;;;;;;34.38;28.10;;;16.20;99.90;;;;;;5017970;28;20273;-46
2022/09/08 06:25:27;;;;;;;34.92;27.55;;;16.20;99.90;;;;;;5018742;28;20515;-46
2022/09/08 06:28:19;;;;;;;29.52;25.80;;;16.30;99.90;;;;;;5001898;28;20257;-47
2022/09/08 06:30:50;;;;;;;29.48;26.08;;;16.30;99.90;;;;;;5010318;28;20038;-47
2022/09/08 06:33:18;;;;;;;;;;;16.40;99.90;;;;;;5036985;28;20032;-45
2022/09/08 06:35:56;;;;;;;30.83;26.23;;;16.40;99.90;;;;;;5029958;28;20553;-46
2022/09/08 06:38:30;;;;;;;30.08;26.65;;;16.40;99.90;;;;;;5030370;28;20037;-46
2022/09/08 06:41:14;;;;;;;29.85;25.30;;;16.40;99.90;;;;;;5029097;28;20035;-46
2022/09/08 06:43:44;;;;;;;34.60;22.95;;;16.40;99.90;;;;;;5030591;28;20478;-45
2022/09/08 06:46:17;;;;;;;31.60;24.67;;;16.50;99.90;;;;;;5021150;28;20472;-47
2022/09/08 06:48:42;;;;;;;34.70;26.08;;;16.40;99.90;;;;;;5023498;28;20040;-47
2022/09/08 06:51:35;;;;;;;28.00;25.17;;;16.50;99.90;;;;;;5028443;28;20025;-48
2022/09/08 06:54:10;;;;;;;27.25;24.23;;;16.50;99.90;;;;;;5027555;28;20025;-47
2022/09/08 06:56:54;;;;;;;28.33;25.20;;;16.60;99.90;;;;;;5026831;28;20096;-47
2022/09/08 06:59:38;;;;;;;32.80;28.30;;;16.70;99.90;;;;;;5038991;28;20029;-47
2022/09/08 07:02:07;;;;;;;29.73;26.50;;;16.90;99.90;;;;;;5048113;28;20032;-48
2022/09/08 07:04:51;;;;;;;30.42;25.58;;;16.90;99.90;;;;;;5046600;28;20025;-49
2022/09/08 07:07:40;;;;;;;26.95;23.70;;;17.00;99.90;;;;;;5048788;28;20032;-48
2022/09/08 07:10:26;;;;;;;30.63;23.95;;;17.10;99.90;;;;;;5046911;28;20051;-47
2022/09/08 07:13:20;;;;;;;28.52;23.67;;;17.00;99.90;;;;;;5039554;28;20021;-47
2022/09/08 07:16:08;;;;;;;25.73;22.67;;;17.10;99.90;;;;;;5039829;28;20590;-46
2022/09/08 07:18:54;;;;;;;30.88;25.25;;;17.00;99.90;;;;;;5029455;28;20043;-45
2022/09/08 07:21:28;;;;;;;29.95;25.13;;;17.10;99.90;;;;;;5030394;28;20119;-46
2022/09/08 07:23:57;;;;;;;28.02;24.05;;;17.10;99.90;;;;;;5034064;28;20029;-49
2022/09/08 07:26:38;;;;;;;31.35;24.85;;;17.00;99.90;;;;;;5046642;28;20033;-49
2022/09/08 07:29:25;;;;;;;33.97;26.25;;;17.00;99.90;;;;;;5039628;28;20107;-46
2022/09/08 07:31:52;;;;;;;33.08;26.10;;;17.10;99.90;;;;;;5048138;28;20110;-48
2022/09/08 07:34:23;;;;;;;29.70;24.85;;;17.10;99.90;;;;;;5047963;28;20055;-48
2022/09/08 07:37:19;;;;;;;25.00;22.40;;;17.10;99.90;;;;;;5045177;28;20504;-47
2022/09/08 07:39:59;;;;;;;28.55;23.25;;;17.10;99.90;;;;;;5031009;28;20025;-50
2022/09/08 07:42:25;;;;;;;29.57;26.23;;;17.10;99.90;;;;;;5027991;28;20014;-46
2022/09/08 07:45:00;;;;;;;32.25;25.33;;;17.10;99.90;;;;;;5024287;28;20022;-46
2022/09/08 07:47:36;;;;;;;26.90;23.90;;;17.10;99.90;;;;;;5023950;28;20437;-48
2022/09/08 07:50:22;;;;;;;28.75;25.63;;;17.10;99.90;;;;;;5023272;28;20018;-46
2022/09/08 07:53:10;;;;;;;31.60;26.15;;;17.10;99.90;;;;;;5019200;28;20117;-49
2022/09/08 07:55:41;;;;;;;36.17;27.55;;;17.10;99.90;;;;;;5018613;28;20091;-47
2022/09/08 07:58:31;;;;;;;34.60;27.45;;;17.20;99.90;;;;;;5018163;28;20026;-47
2022/09/08 08:01:28;;;;;;;30.73;26.27;;;17.10;99.90;;;;;;5022358;28;20064;-48
2022/09/08 08:04:07;;;;;;;28.30;25.30;;;17.10;99.90;;;;;;5021743;28;20722;-46
2022/09/08 08:06:39;;;;;;;32.50;25.77;;;17.10;99.90;;;;;;5023723;28;20018;-46
2022/09/08 08:09:29;;;;;;;30.42;26.77;;;17.10;99.90;;;;;;5028263;28;20227;-46
2022/09/08 08:12:30;;;;;;;32.30;27.88;;;17.10;99.90;;;;;;5021398;28;20090;-47
2022/09/08 08:15:02;;;;;;;35.47;29.25;;;17.10;99.90;;;;;;5025043;28;20022;-50
2022/09/08 08:17:44;;;;;;;33.58;28.77;;;17.20;99.90;;;;;;5025190;28;20043;-46
2022/09/08 08:20:21;;;;;;;36.33;28.52;;;17.20;99.90;;;;;;5027636;28;20121;-46
2022/09/08 08:23:20;;;;;;;31.33;26.95;;;17.30;99.90;;;;;;5020701;28;20029;-45
2022/09/08 08:26:07;;;;;;;33.67;29.20;;;17.40;99.90;;;;;;5027121;28;20562;-47
2022/09/08 08:28:44;;;;;;;34.10;29.05;;;17.50;99.90;;;;;;5019998;28;20020;-46
2022/09/08 08:31:39;;;;;;;32.03;28.50;;;17.60;99.90;;;;;;5039903;28;20049;-46
2022/09/08 08:34:20;;;;;;;31.10;26.58;;;17.60;99.90;;;;;;5050658;28;20029;-46
2022/09/08 08:36:46;;;;;;;30.30;26.75;;;17.60;99.90;;;;;;5048201;28;20025;-46
2022/09/08 08:39:21;;;;;;;34.58;26.35;;;17.60;99.90;;;;;;5038979;28;20030;-46
2022/09/08 08:41:46;;;;;;;32.53;26.13;;;17.50;99.90;;;;;;5050873;28;20025;-47
2022/09/08 08:44:42;;;;;;;221.02;170.57;;;17.50;99.90;;;;;;5042784;28;20036;-47
2022/09/08 08:47:14;;;;;;;68.32;56.88;;;17.50;99.90;;;;;;5048243;28;20047;-48
2022/09/08 08:49:57;;;;;;;65.50;52.83;;;17.50;99.90;;;;;;5037041;28;20109;-47
2022/09/08 08:53:06;;;;;;;37.85;30.10;;;17.50;99.90;;;;;;5028351;28;20475;-48
2022/09/08 08:55:44;;;;;;;35.08;27.02;;;17.50;99.90;;;;;;5027703;28;20065;-47
2022/09/08 08:58:41;;;;;;;27.65;24.10;;;17.60;99.90;;;;;;5015734;28;20164;-46
2022/09/08 09:01:15;;;;;;;26.20;23.38;;;17.50;99.90;;;;;;5056032;28;20025;-47
2022/09/08 09:03:50;;;;;;;26.20;22.45;;;17.50;99.90;;;;;;5045271;28;20033;-46
2022/09/08 09:06:45;;;;;;;32.83;23.27;;;17.50;99.90;;;;;;5042748;28;20044;-48
2022/09/08 09:09:56;;;;;;;27.73;23.20;;;17.30;99.90;;;;;;5027130;28;20398;-47
2022/09/08 09:12:41;;;;;;;;;;;17.40;99.90;;;;;;5024504;28;20490;-47
2022/09/08 09:15:21;;;;;;;28.23;22.10;;;17.30;99.90;;;;;;5045370;28;19943;-46
2022/09/08 09:18:09;;;;;;;26.77;22.77;;;17.30;99.90;;;;;;5043907;28;20077;-47
2022/09/08 09:21:00;;;;;;;28.45;25.10;;;17.30;99.90;;;;;;5041681;28;20033;-46
2022/09/08 09:23:43;;;;;;;27.20;23.30;;;17.40;99.90;;;;;;5005508;28;20411;-47
2022/09/08 09:26:15;;;;;;;27.77;24.65;;;17.30;99.90;;;;;;5011855;28;20426;-46
2022/09/08 09:28:54;;;;;;;29.48;23.55;;;17.40;99.90;;;;;;5040227;28;20022;-47
2022/09/08 09:31:41;;;;;;;33.53;25.33;;;17.40;99.90;;;;;;5050128;28;20212;-48
2022/09/08 09:34:21;;;;;;;34.78;26.33;;;17.40;99.90;;;;;;5048057;28;20020;-47
2022/09/08 09:37:24;;;;;;;28.42;25.38;;;17.50;99.90;;;;;;5039379;28;20029;-47
2022/09/08 09:40:14;;;;;;;28.67;24.48;;;17.50;99.90;;;;;;5008667;28;20037;-47
2022/09/08 09:43:00;;;;;;;35.95;26.98;;;17.50;99.90;;;;;;5026641;28;20130;-47
2022/09/08 09:46:00;;;;;;;30.60;24.60;;;17.60;99.90;;;;;;5033926;28;20032;-50
2022/09/08 09:48:51;;;;;;;33.85;26.02;;;17.60;99.90;;;;;;5048579;28;20029;-48
2022/09/08 09:51:36;;;;;;;;;;;17.60;99.90;;;;;;5046964;28;20441;-49
2022/09/08 09:54:18;;;;;;;36.75;25.52;;;17.70;99.90;;;;;;5040964;28;19909;-50
2022/09/08 09:56:59;;;;;;;33.90;26.45;;;17.70;99.90;;;;;;5044064;28;20025;-48
2022/09/08 09:59:51;;;;;;;27.42;23.60;;;17.80;99.90;;;;;;5029940;28;20043;-49
2022/09/08 10:02:50;;;;;;;27.77;22.75;;;17.80;99.90;;;;;;5030194;28;20072;-50
2022/09/08 10:05:57;;;;;;;27.40;23.45;;;17.80;99.90;;;;;;5029880;28;20372;-48
2022/09/08 10:08:48;;;;;;;31.55;25.55;;;17.80;99.90;;;;;;5040603;28;20025;-49
2022/09/08 10:11:41;;;;;;;29.88;24.58;;;17.80;99.90;;;;;;5031487;28;20079;-48
2022/09/08 10:14:34;;;;;;;27.27;23.67;;;17.80;99.90;;;;;;5036161;28;20032;-47
2022/09/08 10:17:19;;;;;;;29.52;25.52;;;17.80;99.90;;;;;;5046037;28;20109;-48
2022/09/08 10:20:13;;;;;;;32.42;26.27;;;17.80;99.90;;;;;;5048165;28;20025;-50
2022/09/08 10:23:29;;;;;;;38.70;27.30;;;17.90;99.90;;;;;;5046242;28;20035;-48
2022/09/08 10:26:38;;;;;;;32.17;24.63;;;17.90;99.90;;;;;;5041275;28;20052;-48
2022/09/08 10:29:39;;;;;;;30.33;26.20;;;17.80;99.90;;;;;;5029727;28;20511;-48
2022/09/08 10:32:16;;;;;;;34.75;27.65;;;17.90;99.90;;;;;;5015906;28;20471;-48
2022/09/08 10:35:20;;;;;;;32.28;25.63;;;17.90;99.90;;;;;;5033720;28;20542;-50
2022/09/08 10:37:54;;;;;;;26.85;23.85;;;18.00;99.90;;;;;;5037935;28;20033;-49
2022/09/08 10:40:38;;;;;;;28.27;22.58;;;18.00;99.90;;;;;;5041302;28;20055;-48
2022/09/08 10:43:37;;;;;;;27.60;23.70;;;18.10;99.90;;;;;;5039858;28;20029;-50
2022/09/08 10:46:12;;;;;;;25.30;20.92;;;18.10;99.90;;;;;;5048614;28;20029;-47
2022/09/08 10:49:07;;;;;;;27.67;23.35;;;18.00;99.90;;;;;;5037017;28;20022;-48
2022/09/08 10:51:39;;;;;;;27.02;23.80;;;18.00;99.90;;;;;;5009299;28;20384;-49
2022/09/08 10:55:02;;;;;;;24.02;21.42;;;17.90;99.90;;;;;;5034730;28;20032;-49
2022/09/08 10:58:19;;;;;;;31.77;25.25;;;17.90;99.90;;;;;;4990040;28;20021;-49
2022/09/08 11:00:47;;;;;;;25.23;22.10;;;17.80;99.90;;;;;;5006404;28;20037;-47
2022/09/08 11:03:28;;;;;;;27.63;23.65;;;17.80;99.90;;;;;;5032408;28;20418;-48
2022/09/08 11:06:06;;;;;;;27.75;23.63;;;17.70;99.90;;;;;;5043315;28;20039;-47
2022/09/08 11:09:02;;;;;;;32.70;25.50;;;17.70;99.90;;;;;;5039014;28;20683;-49
2022/09/08 11:12:15;;;;;;;30.58;24.33;;;17.70;99.90;;;;;;5008815;28;20034;-46
2022/09/08 11:15:06;;;;;;;28.20;25.17;;;17.60;99.90;;;;;;5030596;28;20025;-47
2022/09/08 11:17:43;;;;;;;30.50;26.10;;;17.60;99.90;;;;;;5002183;28;20068;-48
2022/09/08 11:20:15;;;;;;;26.67;23.83;;;17.60;99.90;;;;;;5027562;28;20037;-49
2022/09/08 11:22:44;;;;;;;31.27;25.35;;;17.60;99.90;;;;;;5032504;28;20039;-48
2022/09/08 11:25:30;;;;;;;30.88;26.55;;;17.60;99.90;;;;;;5029538;28;20040;-48
2022/09/08 11:28:21;;;;;;;36.75;24.35;;;17.60;99.90;;;;;;5035341;28;20022;-48
2022/09/08 11:31:13;;;;;;;30.13;25.23;;;17.60;99.90;;;;;;5008455;28;20030;-47
2022/09/08 11:34:34;;;;;;;35.03;26.50;;;17.50;99.90;;;;;;5034130;28;20479;-47
2022/09/08 11:37:18;;;;;;;30.75;26.63;;;17.50;99.90;;;;;;4994794;28;20064;-47
2022/09/08 11:40:04;;;;;;;27.70;24.48;;;17.50;99.90;;;;;;5040721;28;20445;-47
2022/09/08 11:43:11;;;;;;;27.45;23.73;;;17.50;99.90;;;;;;5048063;28;20124;-47
2022/09/08 11:46:08;;;;;;;25.98;23.17;;;17.50;99.90;;;;;;5002406;28;20487;-48
2022/09/08 11:48:49;;;;;;;26.05;22.40;;;17.40;99.90;;;;;;5027168;28;20020;-50
2022/09/08 11:51:33;;;;;;;27.92;24.50;;;17.40;99.90;;;;;;5042979;28;20641;-49
2022/09/08 11:54:06;;;;;;;31.38;25.95;;;17.40;99.90;;;;;;5049914;28;20033;-48
2022/09/08 11:56:53;;;;;;;28.67;25.45;;;17.40;99.90;;;;;;5032588;28;20029;-48
2022/09/08 11:59:47;;;;;;;27.52;22.58;;;17.40;99.90;;;;;;5031524;28;20025;-48
2022/09/08 12:02:45;;;;;;;25.63;21.45;;;17.40;99.90;;;;;;5025578;28;20113;-49
2022/09/08 12:05:39;;;;;;;56.10;48.33;;;17.30;99.90;;;;;;5051432;28;20442;-47
2022/09/08 12:08:39;;;;;;;37.88;31.30;;;17.30;99.90;;;;;;5041621;28;20025;-48
2022/09/08 12:11:29;;;;;;;25.73;22.23;;;17.30;99.90;;;;;;5050612;28;20021;-51
2022/09/08 12:14:05;;;;;;;21.27;18.55;;;17.30;99.90;;;;;;5039581;28;20022;-51
2022/09/08 12:16:57;;;;;;;21.55;19.25;;;17.20;99.90;;;;;;5020658;28;20056;-48
2022/09/08 12:19:40;;;;;;;18.45;16.55;;;17.20;99.90;;;;;;5044128;28;20033;-50
2022/09/08 12:22:32;;;;;;;17.80;15.98;;;17.30;99.90;;;;;;5046488;28;20025;-51
2022/09/08 12:25:11;;;;;;;18.00;16.17;;;17.20;99.90;;;;;;5042890;28;20021;-49
2022/09/08 12:28:05;;;;;;;18.20;16.30;;;17.30;99.90;;;;;;5042020;28;20155;-51
2022/09/08 12:31:03;;;;;;;18.90;17.00;;;17.40;99.90;;;;;;5024512;28;20036;-49
2022/09/08 12:33:36;;;;;;;17.48;15.65;;;17.40;99.90;;;;;;5027940;28;20398;-47
2022/09/08 12:36:32;;;;;;;16.85;15.15;;;17.40;99.90;;;;;;5024795;28;20021;-49
2022/09/08 12:39:25;;;;;;;15.82;14.25;;;17.50;99.90;;;;;;5021537;28;20030;-47
2022/09/08 12:42:26;;;;;;;15.75;14.15;;;17.50;99.90;;;;;;5029586;28;20017;-48
2022/09/08 12:45:23;;;;;;;15.73;13.95;;;17.60;99.90;;;;;;5020029;28;20057;-50
2022/09/08 12:48:08;;;;;;;16.40;14.70;;;17.60;99.90;;;;;;5027911;28;20486;-48
2022/09/08 12:50:50;;;;;;;16.05;14.43;;;17.60;99.90;;;;;;5020030;28;20053;-48
2022/09/08 12:53:37;;;;;;;17.60;15.43;;;17.50;99.90;;;;;;5023466;28;20530;-48
2022/09/08 12:56:19;;;;;;;16.65;14.85;;;17.50;99.90;;;;;;5022437;28;20029;-48
2022/09/08 12:59:23;;;;;;;17.45;15.65;;;17.40;99.90;;;;;;5022810;28;20021;-48
2022/09/08 13:02:11;;;;;;;17.33;15.48;;;17.40;99.90;;;;;;5023476;28;20029;-49
2022/09/08 13:05:05;;;;;;;17.50;15.63;;;17.30;99.90;;;;;;5020610;28;20497;-50
2022/09/08 13:07:54;;;;;;;18.55;16.13;;;17.20;99.90;;;;;;5020157;28;20044;-50
2022/09/08 13:10:36;;;;;;;17.48;15.60;;;17.20;99.90;;;;;;5023469;28;20025;-48
2022/09/08 13:13:23;;;;;;;19.73;17.63;;;17.20;99.90;;;;;;5037412;28;20052;-50
2022/09/08 13:16:00;;;;;;;20.13;16.52;;;17.20;99.90;;;;;;5024134;28;20026;-48
2022/09/08 13:18:44;;;;;;;22.13;18.17;;;17.20;99.90;;;;;;5020617;28;20284;-49